Time;durP1;ratioP1;P1;durP2;ratioP2;P2;SDS_P1;SDS_P2;PMS_P1;PMS_P2;Temp;Humidity;BMP_temperature;BMP_pressure;BME280_temperature;BME280_humidity;BME280_pressure;Samples;Min_cycle;Max_cycle;Signal;HPM_P1;HPM_P2
2023/09/22 00:02:36;;;;;;;0.43;0.30;;;21.90;36.00;;;;;;10253899;28;20347;-75
2023/09/22 00:07:40;;;;;;;0.40;0.40;;;21.80;36.40;;;;;;10246357;28;20352;-75
2023/09/22 00:12:43;;;;;;;0.40;0.40;;;21.80;36.30;;;;;;10251358;28;20228;-75
2023/09/22 00:17:47;;;;;;;1.80;0.40;;;21.70;36.10;;;;;;10251212;28;20327;-75
2023/09/22 00:22:52;;;;;;;0.50;0.50;;;21.70;36.30;;;;;;10243693;28;20224;-75
2023/09/22 00:27:55;;;;;;;0.60;0.60;;;21.60;36.30;;;;;;10243488;28;20239;-75
2023/09/22 00:33:00;;;;;;;0.60;0.60;;;21.60;36.50;;;;;;10252188;28;20808;-75
2023/09/22 00:38:03;;;;;;;0.50;0.43;;;21.60;36.80;;;;;;10243652;28;20362;-75
2023/09/22 00:43:09;;;;;;;1.47;0.70;;;21.60;36.60;;;;;;10247553;28;20718;-75
2023/09/22 00:48:21;;;;;;;0.60;0.60;;;21.60;36.80;;;;;;10252462;28;20220;-75
2023/09/22 00:53:25;;;;;;;0.50;0.50;;;21.70;37.10;;;;;;10246278;28;20235;-75
2023/09/22 00:58:28;;;;;;;0.53;0.53;;;21.60;36.70;;;;;;10246232;28;20246;-75
2023/09/22 01:03:33;;;;;;;0.60;0.60;;;21.50;36.60;;;;;;10245804;28;20240;-75
2023/09/22 01:08:36;;;;;;;0.50;0.50;;;21.50;37.10;;;;;;10242935;28;20729;-75
2023/09/22 01:13:39;;;;;;;0.50;0.50;;;21.40;37.00;;;;;;10244467;28;20223;-75
2023/09/22 01:18:44;;;;;;;0.53;0.53;;;21.40;37.00;;;;;;10251918;28;20384;-75
2023/09/22 01:23:49;;;;;;;0.57;0.57;;;21.50;36.90;;;;;;10254709;28;20236;-75
2023/09/22 01:28:52;;;;;;;0.60;0.60;;;21.40;36.80;;;;;;10251589;28;20276;-75
2023/09/22 01:33:56;;;;;;;0.67;0.67;;;21.40;36.70;;;;;;10247873;28;20592;-75
2023/09/22 01:39:01;;;;;;;0.50;0.50;;;21.40;36.70;;;;;;10248004;28;20243;-75
2023/09/22 01:44:05;;;;;;;0.60;0.60;;;21.40;36.70;;;;;;10244492;28;20239;-75
2023/09/22 01:49:09;;;;;;;0.63;0.63;;;21.40;36.50;;;;;;10253452;28;20633;-75
2023/09/22 01:54:15;;;;;;;0.60;0.60;;;21.40;36.20;;;;;;10255462;28;21437;-75
2023/09/22 01:59:18;;;;;;;0.50;0.50;;;21.40;36.40;;;;;;10253439;28;20235;-75
2023/09/22 02:04:21;;;;;;;0.50;0.50;;;21.40;36.30;;;;;;10259396;28;20244;-75
2023/09/22 02:09:26;;;;;;;0.50;0.50;;;21.50;36.60;;;;;;10252392;28;20221;-75
2023/09/22 02:14:30;;;;;;;0.50;0.50;;;21.40;36.60;;;;;;10259016;28;20848;-75
2023/09/22 02:19:35;;;;;;;0.40;0.40;;;21.30;36.70;;;;;;10251427;28;20842;-75
2023/09/22 02:24:39;;;;;;;0.67;0.67;;;21.30;36.80;;;;;;10247385;28;20235;-75
2023/09/22 02:29:43;;;;;;;0.70;0.70;;;21.20;36.90;;;;;;10259952;28;20314;-75
2023/09/22 02:34:46;;;;;;;0.60;0.60;;;21.10;37.00;;;;;;10253958;28;20239;-75
2023/09/22 02:39:50;;;;;;;1.13;0.80;;;21.00;37.40;;;;;;10252042;28;20239;-75
2023/09/22 02:44:53;;;;;;;0.60;0.60;;;21.00;37.40;;;;;;10255855;28;20237;-75
2023/09/22 02:49:57;;;;;;;0.60;0.60;;;20.90;37.30;;;;;;10259368;28;20230;-75
2023/09/22 02:55:03;;;;;;;0.90;0.90;;;20.90;37.30;;;;;;10255847;28;20338;-75
2023/09/22 03:00:11;;;;;;;0.70;0.70;;;20.90;37.30;;;;;;10258202;28;20235;-75
2023/09/22 03:05:16;;;;;;;0.80;0.80;;;20.90;37.30;;;;;;10267142;28;20239;-75
2023/09/22 03:10:20;;;;;;;0.73;0.63;;;20.80;37.20;;;;;;10261827;28;20227;-76
2023/09/22 03:15:24;;;;;;;0.70;0.70;;;20.80;37.70;;;;;;10257784;28;20231;-75
2023/09/22 03:20:28;;;;;;;0.53;0.53;;;20.80;37.30;;;;;;10255197;28;20805;-75
2023/09/22 03:25:35;;;;;;;0.70;0.70;;;20.80;37.50;;;;;;10256749;28;20242;-75
2023/09/22 03:30:39;;;;;;;0.80;0.80;;;20.80;38.20;;;;;;10255442;28;20235;-75
2023/09/22 03:35:42;;;;;;;0.80;0.80;;;20.70;38.00;;;;;;10248438;28;20242;-75
2023/09/22 03:40:47;;;;;;;0.73;0.73;;;20.60;38.50;;;;;;10254278;28;20303;-72
2023/09/22 03:45:53;;;;;;;0.70;0.70;;;20.50;39.00;;;;;;10254600;28;20232;-72
2023/09/22 03:50:56;;;;;;;0.70;0.70;;;20.50;39.70;;;;;;10248369;28;20239;-74
2023/09/22 03:56:02;;;;;;;0.97;0.70;;;20.40;39.00;;;;;;10256670;28;20235;-73
2023/09/22 04:01:06;;;;;;;1.23;0.80;;;20.30;39.60;;;;;;10255292;28;20236;-73
2023/09/22 04:06:10;;;;;;;4.23;1.00;;;20.30;39.70;;;;;;10252513;28;20240;-73
2023/09/22 04:11:14;;;;;;;1.20;1.00;;;20.30;39.70;;;;;;10249616;28;20216;-73
2023/09/22 04:16:17;;;;;;;1.77;0.80;;;20.30;40.10;;;;;;10260805;28;20229;-73
2023/09/22 04:21:22;;;;;;;0.93;0.90;;;20.30;39.60;;;;;;10254717;28;20246;-73
2023/09/22 04:26:29;;;;;;;0.73;0.67;;;20.20;39.70;;;;;;10258616;28;20228;-72
2023/09/22 04:31:33;;;;;;;0.97;0.97;;;20.00;40.60;;;;;;10256057;28;20219;-74
2023/09/22 04:36:36;;;;;;;1.33;0.70;;;19.80;40.20;;;;;;10258591;28;20233;-75
2023/09/22 04:41:41;;;;;;;1.43;1.00;;;19.60;40.60;;;;;;10252472;28;20872;-74
2023/09/22 04:46:45;;;;;;;1.07;0.90;;;19.50;41.50;;;;;;10262165;28;20230;-75
2023/09/22 04:51:48;;;;;;;2.83;1.00;;;19.40;41.00;;;;;;10253366;28;20307;-74
2023/09/22 04:56:53;;;;;;;0.90;0.90;;;19.30;41.20;;;;;;10255817;28;20238;-73
2023/09/22 05:01:57;;;;;;;1.00;0.90;;;19.20;41.90;;;;;;10254661;28;20959;-74
2023/09/22 05:07:00;;;;;;;1.47;0.80;;;19.20;41.50;;;;;;10261384;28;20278;-74
2023/09/22 05:12:05;;;;;;;0.90;0.90;;;19.10;41.40;;;;;;10252227;28;20311;-77
2023/09/22 05:17:09;;;;;;;1.60;0.60;;;19.10;42.40;;;;;;10251445;28;20262;-73
2023/09/22 05:22:13;;;;;;;0.77;0.77;;;19.00;41.70;;;;;;10246228;28;20232;-73
2023/09/22 05:27:17;;;;;;;1.33;1.20;;;19.00;41.60;;;;;;10254918;28;20248;-74
2023/09/22 05:32:20;;;;;;;1.33;1.00;;;18.90;42.30;;;;;;10255397;28;20231;-73
2023/09/22 05:37:24;;;;;;;1.97;1.20;;;18.70;42.00;;;;;;10249874;28;20729;-74
2023/09/22 05:42:28;;;;;;;0.90;0.90;;;18.70;42.00;;;;;;10258419;28;20235;-73
2023/09/22 05:47:34;;;;;;;1.60;0.90;;;18.60;42.80;;;;;;10264052;28;20270;-73
2023/09/22 05:52:39;;;;;;;0.90;0.80;;;18.50;42.40;;;;;;10267800;28;20318;-73
2023/09/22 05:57:47;;;;;;;0.70;0.70;;;18.40;42.50;;;;;;10268124;28;20231;-74
2023/09/22 06:02:52;;;;;;;0.80;0.80;;;18.30;43.60;;;;;;10264518;28;20274;-73
2023/09/22 06:07:55;;;;;;;1.03;0.97;;;18.20;43.00;;;;;;10265204;28;20276;-73
2023/09/22 06:13:00;;;;;;;0.80;0.80;;;18.10;43.00;;;;;;10273348;28;20231;-73
2023/09/22 06:18:04;;;;;;;0.90;0.90;;;18.00;43.80;;;;;;10270390;28;20263;-73
2023/09/22 06:23:08;;;;;;;1.10;1.00;;;18.10;43.30;;;;;;10267762;28;20294;-73
2023/09/22 06:28:15;;;;;;;1.47;1.00;;;18.10;43.40;;;;;;10272962;28;20278;-73
2023/09/22 06:33:18;;;;;;;0.70;0.70;;;18.10;43.90;;;;;;10272837;28;20731;-73
2023/09/22 06:38:22;;;;;;;1.10;1.10;;;18.10;43.60;;;;;;10272874;28;20735;-73
2023/09/22 06:43:27;;;;;;;2.53;1.07;;;18.20;43.40;;;;;;10274900;28;20246;-73
2023/09/22 06:48:30;;;;;;;1.63;1.20;;;18.20;44.30;;;;;;10271789;28;20228;-72
2023/09/22 06:53:34;;;;;;;1.10;1.00;;;18.20;43.60;;;;;;10264429;28;20224;-72
2023/09/22 06:58:41;;;;;;;1.07;0.90;;;18.20;43.70;;;;;;10265647;28;20249;-72
2023/09/22 07:03:46;;;;;;;0.97;0.87;;;18.20;44.80;;;;;;10267592;28;20247;-72
2023/09/22 07:08:49;;;;;;;0.80;0.80;;;18.20;44.10;;;;;;10266874;28;20260;-72
2023/09/22 07:13:54;;;;;;;1.17;0.90;;;18.20;43.80;;;;;;10272337;28;20228;-72
2023/09/22 07:18:58;;;;;;;0.90;0.90;;;18.30;44.10;;;;;;10267467;28;20228;-72
2023/09/22 07:24:01;;;;;;;1.00;1.00;;;18.30;43.70;;;;;;10266333;28;20363;-72
2023/09/22 07:29:06;;;;;;;1.40;1.30;;;18.30;43.90;;;;;;10273437;28;20290;-72
2023/09/22 07:34:10;;;;;;;1.73;0.93;;;18.40;44.50;;;;;;10268239;28;20223;-72
2023/09/22 07:39:13;;;;;;;1.00;0.90;;;18.50;43.80;;;;;;10266885;28;20646;-72
2023/09/22 07:44:21;;;;;;;1.37;1.27;;;18.50;43.90;;;;;;10264169;28;20231;-72
2023/09/22 07:49:25;;;;;;;1.23;1.13;;;18.50;44.60;;;;;;10262335;28;20324;-72
2023/09/22 07:54:28;;;;;;;1.00;0.90;;;18.50;44.10;;;;;;10256755;28;20246;-72
2023/09/22 07:59:33;;;;;;;1.10;1.10;;;18.50;44.00;;;;;;10255275;28;20236;-72
2023/09/22 08:04:37;;;;;;;1.13;0.87;;;18.60;44.50;;;;;;10259764;28;20255;-71
2023/09/22 08:09:40;;;;;;;0.97;0.83;;;18.60;43.90;;;;;;10256789;28;20322;-72
2023/09/22 08:14:46;;;;;;;1.57;1.00;;;18.60;44.00;;;;;;10255863;28;20232;-71
2023/09/22 08:20:00;;;;;;;1.40;1.30;;;18.60;44.10;;;;;;10256528;28;20761;-71
2023/09/22 08:25:04;;;;;;;1.30;1.20;;;18.50;43.80;;;;;;10255260;28;20230;-72
2023/09/22 08:30:11;;;;;;;2.23;1.00;;;18.50;43.90;;;;;;10254877;28;20893;-72
2023/09/22 08:35:16;;;;;;;1.20;1.10;;;18.60;44.20;;;;;;10256165;28;20722;-72
2023/09/22 08:40:19;;;;;;;2.03;0.97;;;18.60;43.10;;;;;;10254476;28;20323;-72
2023/09/22 08:45:24;;;;;;;1.00;1.00;;;18.50;43.10;;;;;;10255753;28;20240;-72
2023/09/22 08:50:28;;;;;;;1.00;0.93;;;18.40;43.70;;;;;;10252220;28;20231;-71
2023/09/22 08:55:32;;;;;;;1.20;1.10;;;18.40;43.50;;;;;;10257831;28;20620;-72
2023/09/22 09:00:37;;;;;;;1.67;1.03;;;18.40;43.60;;;;;;10257606;28;20236;-72
2023/09/22 09:05:40;;;;;;;1.07;0.90;;;18.30;44.40;;;;;;10258190;28;20244;-72
2023/09/22 09:10:45;;;;;;;1.30;1.20;;;18.30;44.10;;;;;;10263863;28;20891;-72
2023/09/22 09:15:53;;;;;;;2.23;1.20;;;18.20;44.20;;;;;;10265396;28;20242;-72
2023/09/22 09:21:09;;;;;;;1.90;1.10;;;18.20;44.80;;;;;;10260187;28;20235;-72
2023/09/22 09:26:12;;;;;;;0.90;0.90;;;18.20;45.60;;;;;;10265919;28;20219;-72
2023/09/22 09:31:18;;;;;;;1.60;0.93;;;18.30;44.30;;;;;;10262930;28;20932;-72
2023/09/22 09:36:22;;;;;;;0.90;0.90;;;18.30;44.70;;;;;;10266449;28;20246;-72
2023/09/22 09:41:27;;;;;;;1.27;0.90;;;18.30;44.20;;;;;;10265255;28;20343;-72
2023/09/22 09:46:35;;;;;;;1.17;1.07;;;18.30;44.60;;;;;;10262551;28;20231;-72
2023/09/22 09:51:41;;;;;;;1.10;1.00;;;18.30;45.00;;;;;;10258423;28;20613;-72
2023/09/22 09:56:44;;;;;;;0.80;0.80;;;18.30;44.80;;;;;;10249968;28;20682;-72
2023/09/22 10:01:50;;;;;;;1.70;1.00;;;18.40;44.30;;;;;;10255079;28;20239;-72
2023/09/22 10:06:55;;;;;;;1.03;0.80;;;18.50;44.20;;;;;;10260332;28;20248;-72
2023/09/22 10:12:00;;;;;;;1.03;0.90;;;18.50;44.60;;;;;;10263323;28;20246;-72
2023/09/22 10:17:21;;;;;;;0.93;0.83;;;18.40;44.20;;;;;;10259779;28;20594;-71
2023/09/22 10:22:24;;;;;;;1.10;1.00;;;18.30;45.20;;;;;;10263636;28;20251;-72
2023/09/22 10:27:51;;;;;;;1.57;1.03;;;18.20;44.40;;;;;;10262512;28;20727;-72
2023/09/22 10:33:32;;;;;;;0.80;0.80;;;18.20;44.20;;;;;;10259988;28;20236;-72
2023/09/22 10:38:56;;;;;;;2.40;1.03;;;18.20;44.70;;;;;;10259381;28;20246;-72
2023/09/22 10:44:01;;;;;;;1.87;0.97;;;18.10;44.40;;;;;;10256668;28;20258;-72
2023/09/22 10:49:06;;;;;;;0.90;0.90;;;18.10;44.30;;;;;;10270812;28;20331;-72
2023/09/22 10:54:11;;;;;;;1.37;0.90;;;18.10;44.90;;;;;;10269622;28;20223;-71
2023/09/22 10:59:14;;;;;;;1.03;0.93;;;18.10;44.70;;;;;;10265960;28;20415;-71
2023/09/22 11:04:19;;;;;;;1.90;1.23;;;18.10;44.80;;;;;;10270229;28;20227;-72
2023/09/22 11:09:34;;;;;;;1.60;0.90;;;18.10;45.40;;;;;;10267716;28;20267;-72
2023/09/22 11:14:37;;;;;;;1.23;1.00;;;18.10;46.70;;;;;;10265817;28;20238;-72
2023/09/22 11:19:52;;;;;;;1.20;1.10;;;18.10;45.50;;;;;;10267699;28;20242;-72
2023/09/22 11:24:55;;;;;;;2.13;1.40;;;18.10;46.90;;;;;;10265665;28;20228;-72
2023/09/22 11:30:13;;;;;;;2.80;1.00;;;18.10;45.50;;;;;;10262142;28;20232;-71
2023/09/22 11:35:37;;;;;;;1.30;1.20;;;18.20;47.20;;;;;;10264467;28;20329;-72
2023/09/22 11:40:41;;;;;;;4.20;1.40;;;18.20;47.20;;;;;;10264693;28;20728;-71
2023/09/22 11:45:45;;;;;;;2.07;1.20;;;18.20;46.00;;;;;;10264776;28;20616;-71
2023/09/22 11:50:56;;;;;;;1.20;1.10;;;18.20;46.00;;;;;;10264067;28;20236;-71
2023/09/22 11:56:00;;;;;;;1.87;0.93;;;18.20;47.20;;;;;;10271068;28;20786;-71
2023/09/22 12:01:03;;;;;;;1.10;1.00;;;18.20;46.10;;;;;;10265355;28;20242;-72
2023/09/22 12:06:12;;;;;;;3.63;1.10;;;18.20;46.10;;;;;;10268112;28;20231;-71
2023/09/22 12:11:15;;;;;;;0.90;0.90;;;18.30;46.40;;;;;;10259838;28;20252;-72
2023/09/22 12:16:19;;;;;;;1.43;0.80;;;18.30;45.80;;;;;;10263200;28;20227;-72
2023/09/22 12:21:24;;;;;;;1.00;0.90;;;18.20;45.90;;;;;;10265361;28;20232;-72
2023/09/22 12:26:27;;;;;;;1.20;1.00;;;18.10;46.70;;;;;;10261303;28;20726;-71
2023/09/22 12:31:31;;;;;;;0.90;0.80;;;18.10;46.00;;;;;;10262104;28;20285;-71
2023/09/22 12:36:36;;;;;;;0.70;0.70;;;18.00;45.80;;;;;;10264708;28;20238;-71
2023/09/22 12:41:39;;;;;;;0.80;0.80;;;18.00;46.90;;;;;;10273533;28;21090;-72
2023/09/22 12:46:43;;;;;;;1.03;0.97;;;18.00;46.30;;;;;;10264277;28;20231;-72
2023/09/22 12:51:48;;;;;;;2.20;0.90;;;18.00;46.40;;;;;;10262015;28;20250;-72
2023/09/22 12:56:51;;;;;;;1.57;0.90;;;17.90;46.90;;;;;;10264199;28;20310;-72
2023/09/22 13:01:54;;;;;;;0.80;0.80;;;17.90;46.00;;;;;;10263810;28;20243;-73
2023/09/22 13:06:59;;;;;;;0.67;0.63;;;17.80;45.70;;;;;;10274092;28;20718;-74
2023/09/22 13:12:02;;;;;;;0.70;0.70;;;17.70;46.10;;;;;;10262519;28;20222;-74
2023/09/22 13:17:05;;;;;;;0.70;0.70;;;17.60;46.00;;;;;;10270365;28;20232;-73
2023/09/22 13:22:11;;;;;;;1.27;0.80;;;17.60;46.20;;;;;;10265744;28;20239;-74
2023/09/22 13:27:14;;;;;;;0.60;0.60;;;17.60;46.70;;;;;;10261793;28;20555;-74
2023/09/22 13:32:17;;;;;;;0.80;0.73;;;17.60;46.60;;;;;;10266191;28;20235;-74
2023/09/22 13:37:22;;;;;;;2.30;0.80;;;17.60;46.60;;;;;;10262357;28;20261;-74
2023/09/22 13:42:25;;;;;;;0.77;0.77;;;17.60;46.60;;;;;;10271899;28;21138;-74
2023/09/22 13:47:28;;;;;;;0.80;0.80;;;17.60;46.60;;;;;;10268597;28;20817;-74
2023/09/22 13:52:33;;;;;;;1.07;0.80;;;17.60;46.10;;;;;;10272424;28;20227;-78
2023/09/22 13:57:38;;;;;;;0.90;0.90;;;17.60;46.60;;;;;;10274838;28;20756;-76
2023/09/22 14:02:42;;;;;;;0.60;0.60;;;17.60;46.60;;;;;;10263242;28;20623;-75
2023/09/22 14:07:47;;;;;;;1.30;1.20;;;17.60;46.60;;;;;;10270171;28;20231;-76
2023/09/22 14:12:51;;;;;;;2.40;1.30;;;17.50;46.50;;;;;;10265587;28;20589;-75
2023/09/22 14:17:56;;;;;;;0.77;0.77;;;17.50;46.50;;;;;;10269631;28;20251;-75
2023/09/22 14:23:01;;;;;;;1.80;0.90;;;17.60;46.60;;;;;;10272976;28;20235;-75
2023/09/22 14:28:05;;;;;;;0.67;0.67;;;17.70;46.70;;;;;;10266047;28;20259;-75
2023/09/22 14:33:08;;;;;;;1.23;1.13;;;17.80;46.60;;;;;;10266737;28;20769;-75
2023/09/22 14:38:14;;;;;;;1.37;1.00;;;17.90;46.10;;;;;;10267837;28;20283;-75
2023/09/22 14:43:17;;;;;;;0.73;0.73;;;17.90;46.10;;;;;;10269667;28;20236;-75
2023/09/22 14:48:21;;;;;;;1.43;1.00;;;18.00;45.70;;;;;;10271078;28;20223;-75
2023/09/22 14:53:25;;;;;;;0.70;0.70;;;17.90;45.50;;;;;;10270220;28;20233;-75
2023/09/22 14:58:28;;;;;;;1.03;0.93;;;17.80;46.00;;;;;;10272284;28;20238;-74
2023/09/22 15:03:32;;;;;;;1.30;1.10;;;17.80;45.90;;;;;;10271199;28;20236;-73
2023/09/22 15:08:37;;;;;;;1.30;1.20;;;17.70;46.10;;;;;;10270049;28;20252;-77
2023/09/22 15:13:40;;;;;;;0.77;0.77;;;17.60;46.60;;;;;;10269370;28;20303;-74
2023/09/22 15:18:43;;;;;;;1.53;0.93;;;17.60;46.40;;;;;;10268568;28;20695;-74
2023/09/22 15:23:49;;;;;;;0.90;0.90;;;17.60;46.40;;;;;;10268602;28;20231;-74
2023/09/22 15:28:52;;;;;;;0.90;0.87;;;17.50;46.50;;;;;;10268503;28;20238;-74
2023/09/22 15:33:56;;;;;;;1.33;1.23;;;17.50;46.50;;;;;;10268205;28;20354;-74
2023/09/22 15:39:00;;;;;;;2.00;1.80;;;17.50;46.50;;;;;;10266355;28;20230;-77
2023/09/22 15:44:04;;;;;;;1.60;1.50;;;17.60;46.60;;;;;;10265565;28;20235;-77
2023/09/22 15:49:07;;;;;;;4.60;4.20;;;17.60;46.60;;;;;;10267949;28;20648;-77
2023/09/22 15:54:12;;;;;;;3.70;2.43;;;17.60;46.60;;;;;;10266899;28;20311;-77
2023/09/22 15:59:16;;;;;;;2.30;2.20;;;17.70;46.70;;;;;;10264401;28;21013;-77
2023/09/22 16:04:19;;;;;;;1.27;1.17;;;17.60;46.20;;;;;;10268579;28;20231;-77
2023/09/22 16:09:24;;;;;;;1.67;1.57;;;17.50;46.40;;;;;;10268540;28;20223;-77
2023/09/22 16:14:27;;;;;;;21.70;15.67;;;17.40;46.50;;;;;;10268400;28;20314;-77
2023/09/22 16:19:30;;;;;;;16.43;12.27;;;17.40;46.50;;;;;;10264076;28;20314;-77
2023/09/22 16:24:35;;;;;;;22.00;17.70;;;17.40;46.50;;;;;;10271083;28;20315;-77
2023/09/22 16:29:39;;;;;;;5.47;4.93;;;17.30;46.30;;;;;;10266195;28;20242;-77
2023/09/22 16:34:42;;;;;;;3.27;2.63;;;17.20;46.30;;;;;;10268025;28;20318;-74
2023/09/22 16:39:47;;;;;;;1.67;1.30;;;17.20;46.30;;;;;;10270105;28;20238;-74
2023/09/22 16:44:50;;;;;;;1.20;1.10;;;17.20;46.30;;;;;;10262525;28;20996;-77
2023/09/22 16:49:53;;;;;;;2.10;1.23;;;17.10;46.20;;;;;;10267779;28;20290;-78
2023/09/22 16:54:58;;;;;;;1.20;1.10;;;17.00;46.60;;;;;;10264624;28;20262;-74
2023/09/22 17:00:04;;;;;;;1.10;1.00;;;17.00;46.60;;;;;;10267558;28;20760;-74
2023/09/22 17:05:08;;;;;;;1.27;1.10;;;17.00;46.10;;;;;;10270448;28;20259;-75
2023/09/22 17:10:13;;;;;;;1.20;1.10;;;17.00;46.10;;;;;;10263231;28;20669;-75
2023/09/22 17:15:17;;;;;;;2.27;1.00;;;17.00;46.10;;;;;;10264378;28;20262;-75
2023/09/22 17:20:20;;;;;;;1.10;1.00;;;17.00;46.10;;;;;;10265422;28;20233;-74
2023/09/22 17:25:25;;;;;;;0.87;0.87;;;16.90;46.00;;;;;;10267633;28;21037;-74
2023/09/22 17:30:28;;;;;;;1.87;0.90;;;16.90;46.20;;;;;;10267834;28;20238;-72
2023/09/22 17:35:31;;;;;;;1.00;1.00;;;16.90;46.00;;;;;;10268653;28;20231;-72
2023/09/22 17:40:36;;;;;;;0.90;0.90;;;16.80;45.90;;;;;;10263546;28;20319;-73
2023/09/22 17:45:39;;;;;;;0.73;0.73;;;16.80;46.30;;;;;;10264983;28;20266;-74
2023/09/22 17:50:43;;;;;;;1.63;0.70;;;16.80;45.90;;;;;;10264395;28;20610;-73
2023/09/22 17:55:47;;;;;;;1.60;0.87;;;16.80;45.90;;;;;;10264635;28;20227;-77
2023/09/22 18:00:51;;;;;;;0.90;0.90;;;16.80;46.30;;;;;;10265014;28;20742;-77
2023/09/22 18:05:55;;;;;;;2.10;1.00;;;16.70;45.80;;;;;;10266702;28;21045;-72
2023/09/22 18:11:00;;;;;;;2.13;1.03;;;16.70;45.80;;;;;;10263593;28;20243;-71
2023/09/22 18:16:04;;;;;;;1.47;1.00;;;16.60;46.10;;;;;;10261487;28;20234;-72
2023/09/22 18:21:07;;;;;;;3.03;1.00;;;16.60;45.70;;;;;;10257411;28;20227;-72
2023/09/22 18:26:12;;;;;;;1.27;0.90;;;16.60;45.70;;;;;;10265608;28;20219;-73
2023/09/22 18:31:17;;;;;;;0.70;0.70;;;16.60;46.00;;;;;;10266477;28;20897;-73
2023/09/22 18:36:21;;;;;;;1.57;1.10;;;16.60;45.70;;;;;;10270439;28;20231;-73
2023/09/22 18:41:26;;;;;;;0.70;0.70;;;16.60;45.70;;;;;;10266102;28;20263;-73
2023/09/22 18:46:29;;;;;;;0.93;0.90;;;16.70;46.10;;;;;;10268672;28;20383;-73
2023/09/22 18:51:33;;;;;;;1.10;1.00;;;16.60;45.70;;;;;;10264757;28;20278;-73
2023/09/22 18:56:39;;;;;;;1.10;1.00;;;16.60;45.70;;;;;;10268431;28;21007;-74
2023/09/22 19:01:42;;;;;;;0.80;0.80;;;16.50;46.40;;;;;;10261024;28;20232;-75
2023/09/22 19:06:46;;;;;;;0.83;0.80;;;16.50;46.10;;;;;;10264504;28;20776;-77
2023/09/22 19:11:51;;;;;;;1.30;0.90;;;16.50;46.40;;;;;;10267432;28;20262;-75
2023/09/22 19:16:55;;;;;;;0.80;0.80;;;16.50;46.70;;;;;;10263478;28;20263;-75
2023/09/22 19:21:58;;;;;;;2.23;0.90;;;16.40;46.30;;;;;;10255953;28;20274;-73
2023/09/22 19:27:03;;;;;;;0.73;0.73;;;16.40;46.50;;;;;;10259543;28;20604;-75
2023/09/22 19:32:06;;;;;;;1.50;0.77;;;16.40;46.70;;;;;;10257278;28;20247;-75
2023/09/22 19:37:09;;;;;;;1.17;0.97;;;16.40;46.60;;;;;;10260545;28;20283;-74
2023/09/22 19:42:15;;;;;;;0.80;0.80;;;16.30;46.80;;;;;;10260042;28;20320;-74
2023/09/22 19:47:19;;;;;;;1.10;1.00;;;16.30;47.10;;;;;;10263162;28;20706;-74
2023/09/22 19:52:22;;;;;;;1.07;1.00;;;16.30;46.70;;;;;;10262035;28;20246;-74
2023/09/22 19:57:27;;;;;;;1.00;0.90;;;16.30;46.70;;;;;;10266392;28;20319;-74
2023/09/22 20:02:30;;;;;;;1.17;1.07;;;16.30;47.10;;;;;;10252728;28;20239;-74
2023/09/22 20:07:34;;;;;;;1.33;1.03;;;16.30;46.60;;;;;;10258056;28;20243;-75
2023/09/22 20:12:38;;;;;;;1.10;1.00;;;16.30;46.70;;;;;;10258629;28;20621;-75
2023/09/22 20:17:42;;;;;;;1.60;1.10;;;16.30;46.80;;;;;;10255474;28;20720;-75
2023/09/22 20:22:46;;;;;;;1.07;1.00;;;16.30;46.60;;;;;;10257367;28;20224;-74
2023/09/22 20:27:51;;;;;;;0.97;0.83;;;16.30;46.60;;;;;;10257800;28;20231;-74
2023/09/22 20:32:56;;;;;;;0.93;0.80;;;16.30;47.00;;;;;;10256859;28;21176;-75
2023/09/22 20:38:00;;;;;;;1.53;0.73;;;16.40;47.00;;;;;;10255983;28;20772;-77
2023/09/22 20:43:05;;;;;;;2.70;1.00;;;16.50;46.90;;;;;;10258752;28;20270;-74
2023/09/22 20:48:08;;;;;;;1.50;0.73;;;16.50;47.00;;;;;;10253568;28;21039;-74
2023/09/22 20:53:12;;;;;;;1.53;1.00;;;16.60;46.70;;;;;;10254327;28;20610;-74
2023/09/22 20:58:19;;;;;;;2.50;1.70;;;16.70;46.40;;;;;;10253415;28;20710;-74
2023/09/22 21:03:22;;;;;;;2.00;1.47;;;16.80;46.00;;;;;;10259201;28;20242;-77
2023/09/22 21:08:26;;;;;;;1.37;1.27;;;16.70;45.80;;;;;;10257132;28;20254;-77
2023/09/22 21:13:30;;;;;;;2.87;1.33;;;16.70;45.90;;;;;;10261087;28;20315;-77
2023/09/22 21:18:34;;;;;;;1.33;1.23;;;16.70;46.20;;;;;;10256625;28;20267;-73
2023/09/22 21:23:37;;;;;;;1.50;1.40;;;16.70;45.90;;;;;;10255973;28;20371;-74
2023/09/22 21:28:41;;;;;;;2.10;1.30;;;16.70;46.00;;;;;;10254517;28;20231;-74
2023/09/22 21:33:46;;;;;;;1.30;1.20;;;16.60;46.20;;;;;;10254029;28;20314;-77
2023/09/22 21:38:53;;;;;;;1.97;1.40;;;16.50;46.10;;;;;;10255575;28;20223;-77
2023/09/22 21:43:58;;;;;;;1.40;1.03;;;16.50;46.30;;;;;;10262303;28;20228;-77
2023/09/22 21:49:03;;;;;;;1.00;1.00;;;16.40;46.30;;;;;;10257512;28;20270;-75
2023/09/22 21:54:06;;;;;;;1.20;1.10;;;16.40;46.40;;;;;;10256980;28;20224;-77
2023/09/22 21:59:11;;;;;;;1.00;1.00;;;16.30;46.50;;;;;;10262316;28;20604;-77
2023/09/22 22:04:14;;;;;;;1.80;0.97;;;16.20;46.80;;;;;;10263197;28;20228;-77
2023/09/22 22:09:19;;;;;;;0.90;0.90;;;16.20;46.90;;;;;;10267852;28;20231;-77
2023/09/22 22:14:23;;;;;;;1.10;1.00;;;16.20;46.80;;;;;;10266261;28;20250;-77
2023/09/22 22:19:26;;;;;;;1.00;0.90;;;16.30;46.90;;;;;;10261199;28;20237;-78
2023/09/22 22:24:29;;;;;;;0.80;0.80;;;16.30;46.60;;;;;;10270016;28;21086;-77
2023/09/22 22:29:34;;;;;;;0.93;0.77;;;16.30;46.50;;;;;;10251804;28;20330;-77
2023/09/22 22:34:38;;;;;;;0.80;0.80;;;16.30;46.80;;;;;;10262567;28;20531;-77
2023/09/22 22:39:41;;;;;;;1.77;0.83;;;16.10;46.60;;;;;;10265543;28;20302;-77
2023/09/22 22:44:46;;;;;;;1.17;1.00;;;16.30;46.70;;;;;;10263509;28;20314;-72
2023/09/22 22:49:50;;;;;;;1.20;1.10;;;16.40;46.80;;;;;;10260780;28;20238;-77
2023/09/22 22:54:56;;;;;;;0.90;0.90;;;16.30;46.60;;;;;;10264683;28;20228;-76
2023/09/22 23:00:01;;;;;;;1.37;1.10;;;16.30;46.80;;;;;;10263030;28;20306;-77
2023/09/22 23:05:09;;;;;;;2.00;1.00;;;16.30;46.90;;;;;;10257705;28;20282;-77
2023/09/22 23:10:14;;;;;;;1.37;1.00;;;16.40;46.60;;;;;;10262354;28;20238;-76
2023/09/22 23:15:21;;;;;;;1.40;1.00;;;16.40;46.80;;;;;;10259651;28;20711;-77
2023/09/22 23:20:33;;;;;;;3.57;0.93;;;16.40;46.80;;;;;;10261993;28;20282;-75
2023/09/22 23:25:39;;;;;;;1.73;0.93;;;16.40;46.40;;;;;;10262829;28;20231;-74
2023/09/22 23:30:43;;;;;;;0.67;0.67;;;16.40;46.00;;;;;;10259351;28;20377;-74
2023/09/22 23:35:46;;;;;;;1.67;0.80;;;16.40;45.90;;;;;;10263039;28;20238;-74
2023/09/22 23:40:51;;;;;;;1.47;0.80;;;16.30;45.90;;;;;;10263997;28;20236;-74
2023/09/22 23:45:56;;;;;;;0.90;0.77;;;16.20;46.00;;;;;;10264655;28;20223;-74
2023/09/22 23:51:02;;;;;;;2.30;0.97;;;16.00;46.50;;;;;;10266119;28;20282;-77
2023/09/22 23:56:05;;;;;;;1.40;0.80;;;16.00;46.40;;;;;;10261187;28;20260;-78
